Time;durP1;ratioP1;P1;durP2;ratioP2;P2;SDS_P1;SDS_P2;PMS_P1;PMS_P2;Temp;Humidity;BMP_temperature;BMP_pressure;BME280_temperature;BME280_humidity;BME280_pressure;Samples;Min_cycle;Max_cycle;Signal;HPM_P1;HPM_P2
2023/11/30 00:02:25;;;;;;;16.20;10.70;;;;;;;-5.33;100.00;98429.61;109572;1250;59842;-59
2023/11/30 00:04:52;;;;;;;18.80;12.40;;;;;;;-5.39;100.00;98428.08;109601;1250;59673;-60
2023/11/30 00:07:19;;;;;;;19.60;12.80;;;;;;;-5.44;100.00;98429.45;109579;1250;67907;-59
2023/11/30 00:09:46;;;;;;;18.90;12.40;;;;;;;-5.48;100.00;98435.59;109637;1250;72468;-59
2023/11/30 00:12:12;;;;;;;16.90;11.10;;;;;;;-5.51;100.00;98433.52;109606;1250;59810;-59
2023/11/30 00:14:40;;;;;;;18.80;12.00;;;;;;;-5.54;100.00;98435.97;109622;1250;59859;-59
2023/11/30 00:17:06;;;;;;;15.90;11.60;;;;;;;-5.59;100.00;98438.35;109659;1250;75174;-59
2023/11/30 00:19:34;;;;;;;16.60;12.40;;;;;;;-5.64;100.00;98439.81;109615;1250;67002;-59
2023/11/30 00:22:00;;;;;;;22.50;13.60;;;;;;;-5.68;100.00;98441.83;109622;1250;71318;-58
2023/11/30 00:24:27;;;;;;;19.50;13.30;;;;;;;-5.71;100.00;98439.44;109597;1250;59836;-59
2023/11/30 00:26:53;;;;;;;19.50;12.40;;;;;;;-5.78;100.00;98441.38;109655;1250;60333;-60
2023/11/30 00:29:20;;;;;;;21.30;14.10;;;;;;;-5.82;100.00;98445.79;109616;1250;75214;-59
2023/11/30 00:31:47;;;;;;;18.40;12.60;;;;;;;-5.85;100.00;98445.13;109621;1250;67813;-59
2023/11/30 00:34:14;;;;;;;20.10;13.10;;;;;;;-5.86;100.00;98446.59;109587;1250;71331;-59
2023/11/30 00:36:41;;;;;;;18.20;11.40;;;;;;;-5.86;100.00;98437.64;109631;1250;59936;-59
2023/11/30 00:39:08;;;;;;;20.70;13.30;;;;;;;-5.87;100.00;98438.38;109602;1250;59935;-59
2023/11/30 00:41:34;;;;;;;21.60;13.50;;;;;;;-5.88;100.00;98441.39;109688;1250;75465;-59
2023/11/30 00:44:01;;;;;;;21.50;13.50;;;;;;;-5.90;100.00;98439.41;109607;1250;67725;-59
2023/11/30 00:46:28;;;;;;;18.90;12.70;;;;;;;-5.91;100.00;98442.60;109464;1251;72653;-59
2023/11/30 00:48:54;;;;;;;20.60;13.70;;;;;;;-5.94;100.00;98449.19;109585;1250;59785;-59
2023/11/30 00:51:21;;;;;;;28.60;18.70;;;;;;;-5.98;100.00;98449.27;109538;1251;59834;-59
2023/11/30 00:53:47;;;;;;;29.40;19.60;;;;;;;-6.04;100.00;98451.52;109605;1250;59767;-59
2023/11/30 00:56:14;;;;;;;27.90;18.00;;;;;;;-6.09;100.00;98450.27;109500;1251;59880;-59
2023/11/30 00:58:40;;;;;;;30.10;17.60;;;;;;;-6.12;100.00;98449.77;109602;1250;59896;-59
2023/11/30 01:01:07;;;;;;;25.40;16.80;;;;;;;-6.16;100.00;98446.04;109587;1249;59684;-59
2023/11/30 01:03:33;;;;;;;29.30;16.50;;;;;;;-6.19;100.00;98438.61;109590;1250;61436;-59
2023/11/30 01:06:00;;;;;;;27.00;16.20;;;;;;;-6.20;100.00;98437.63;109633;1250;75492;-59
2023/11/30 01:08:26;;;;;;;26.80;16.60;;;;;;;-6.19;100.00;98436.55;109647;1250;59776;-59
2023/11/30 01:10:53;;;;;;;30.60;16.70;;;;;;;-6.19;100.00;98434.98;109545;1250;72667;-59
2023/11/30 01:13:19;;;;;;;25.00;16.70;;;;;;;-6.20;100.00;98434.55;109635;1251;60749;-59
2023/11/30 01:15:46;;;;;;;26.80;15.90;;;;;;;-6.21;100.00;98436.69;109600;1250;59668;-59
2023/11/30 01:18:12;;;;;;;32.00;18.60;;;;;;;-6.23;100.00;98440.63;109575;1250;74470;-59
2023/11/30 01:20:40;;;;;;;34.80;18.50;;;;;;;-6.26;100.00;98443.66;109604;1250;66304;-59
2023/11/30 01:23:06;;;;;;;26.80;17.10;;;;;;;-6.29;100.00;98446.94;109583;1250;59908;-59
2023/11/30 01:25:33;;;;;;;26.70;17.10;;;;;;;-6.30;100.00;98440.63;109558;1251;59755;-59
2023/11/30 01:28:00;;;;;;;27.80;15.80;;;;;;;-6.29;100.00;98440.94;109699;1250;59718;-59
2023/11/30 01:30:27;;;;;;;29.30;16.90;;;;;;;-6.27;100.00;98440.97;109587;1250;73942;-59
2023/11/30 01:32:53;;;;;;;31.40;17.40;;;;;;;-6.26;100.00;98441.08;109654;1250;67617;-59
2023/11/30 01:35:20;;;;;;;26.70;15.60;;;;;;;-6.26;100.00;98439.88;109622;1250;72675;-59
2023/11/30 01:37:46;;;;;;;23.80;15.10;;;;;;;-6.26;100.00;98439.89;109678;1250;59792;-58
2023/11/30 01:40:13;;;;;;;23.20;14.90;;;;;;;-6.28;100.00;98447.27;109607;1251;59768;-64
2023/11/30 01:42:40;;;;;;;31.60;16.70;;;;;;;-6.33;100.00;98446.34;109641;1249;74182;-59
2023/11/30 01:45:07;;;;;;;25.50;15.10;;;;;;;-6.38;100.00;98445.61;109612;1250;67901;-59
2023/11/30 01:47:34;;;;;;;21.90;14.00;;;;;;;-6.42;100.00;98447.94;109641;1250;71403;-59
2023/11/30 01:50:00;;;;;;;31.70;16.20;;;;;;;-6.46;100.00;98445.23;109635;1250;59762;-58
2023/11/30 01:52:30;;;;;;;32.40;17.50;;;;;;;-6.48;100.00;98444.64;109629;1250;60215;-59
2023/11/30 01:54:57;;;;;;;27.90;15.90;;;;;;;-6.49;100.00;98444.73;109644;1251;74167;-59
2023/11/30 01:57:24;;;;;;;30.60;17.70;;;;;;;-6.49;100.00;98445.25;109668;1250;67892;-59
2023/11/30 01:59:51;;;;;;;27.70;16.00;;;;;;;-6.49;100.00;98439.21;109547;1249;72519;-59
2023/11/30 02:02:17;;;;;;;32.30;16.70;;;;;;;-6.50;100.00;98438.05;109515;1250;60088;-59
2023/11/30 02:04:44;;;;;;;32.70;18.30;;;;;;;-6.52;100.00;98440.39;109449;1253;60398;-59
2023/11/30 02:07:11;;;;;;;30.00;16.10;;;;;;;-6.53;100.00;98442.69;109533;1251;74434;-60
2023/11/30 02:09:37;;;;;;;29.10;16.10;;;;;;;-6.56;100.00;98441.15;109609;1250;60005;-59
2023/11/30 02:12:04;;;;;;;34.10;17.30;;;;;;;-6.59;100.00;98441.69;109555;1251;59860;-59
2023/11/30 02:14:32;;;;;;;27.80;16.30;;;;;;;-6.62;100.00;98439.27;109647;1250;61901;-59
2023/11/30 02:16:58;;;;;;;26.00;15.20;;;;;;;-6.63;100.00;98443.84;109641;1251;59574;-59
2023/11/30 02:19:25;;;;;;;26.40;14.90;;;;;;;-6.64;100.00;98444.59;109541;1250;74505;-59
2023/11/30 02:21:51;;;;;;;27.60;15.80;;;;;;;-6.64;100.00;98438.70;109544;1251;59889;-59
2023/11/30 02:24:18;;;;;;;26.90;16.00;;;;;;;-6.63;100.00;98443.48;109628;1251;72481;-59
2023/11/30 02:26:48;;;;;;;33.00;17.20;;;;;;;-6.63;100.00;98440.71;109597;1250;60309;-59
2023/11/30 02:29:15;;;;;;;25.70;16.10;;;;;;;-6.64;100.00;98443.35;109607;1250;60089;-59
2023/11/30 02:31:42;;;;;;;26.30;14.60;;;;;;;-6.67;100.00;98443.18;109671;1250;74223;-59
2023/11/30 02:34:09;;;;;;;25.40;14.80;;;;;;;-6.69;100.00;98441.97;109587;1250;66506;-59
2023/11/30 02:36:35;;;;;;;23.50;13.70;;;;;;;-6.72;100.00;98444.02;109624;1250;71052;-60
2023/11/30 02:39:02;;;;;;;24.80;13.10;;;;;;;-6.75;100.00;98444.34;109574;1250;62061;-59
2023/11/30 02:41:29;;;;;;;21.20;13.10;;;;;;;-6.75;100.00;98448.16;109463;1251;61931;-59
2023/11/30 02:43:57;;;;;;;19.80;11.90;;;;;;;-6.76;100.00;98445.29;109483;1250;60166;-60
2023/11/30 02:46:23;;;;;;;21.50;11.90;;;;;;;-6.74;100.00;98445.36;109617;1250;66543;-59
2023/11/30 02:48:50;;;;;;;20.60;11.60;;;;;;;-6.72;100.00;98446.94;109521;1251;59794;-60
2023/11/30 02:51:17;;;;;;;21.30;11.60;;;;;;;-6.70;100.00;98450.44;109608;1250;60951;-58
2023/11/30 02:53:43;;;;;;;22.30;12.90;;;;;;;-6.69;100.00;98450.20;109527;1251;60266;-59
2023/11/30 02:56:10;;;;;;;20.50;11.70;;;;;;;-6.70;100.00;98450.09;109649;1251;59778;-59
2023/11/30 02:58:36;;;;;;;18.70;12.50;;;;;;;-6.72;100.00;98449.33;109712;1251;67864;-60
2023/11/30 03:01:03;;;;;;;17.50;11.90;;;;;;;-6.74;100.00;98446.02;109611;1251;59789;-60
2023/11/30 03:03:30;;;;;;;17.80;11.00;;;;;;;-6.76;100.00;98456.50;109662;1250;59731;-59
2023/11/30 03:05:56;;;;;;;18.90;12.40;;;;;;;-6.79;100.00;98455.97;109655;1251;59990;-60
2023/11/30 03:08:23;;;;;;;21.00;11.50;;;;;;;-6.81;100.00;98460.26;109619;1251;74099;-59
2023/11/30 03:10:50;;;;;;;16.40;10.60;;;;;;;-6.81;100.00;98460.25;109652;1250;60004;-59
2023/11/30 03:13:18;;;;;;;17.00;11.00;;;;;;;-6.79;100.00;98458.24;109512;1251;72238;-60
2023/11/30 03:15:46;;;;;;;15.50;10.50;;;;;;;-6.76;100.00;98454.44;109598;1250;59875;-59
2023/11/30 03:18:12;;;;;;;14.70;10.00;;;;;;;-6.73;100.00;98456.69;109597;1250;59677;-60
2023/11/30 03:20:39;;;;;;;14.90;9.70;;;;;;;-6.71;100.00;98457.92;109570;1251;73243;-59
2023/11/30 03:23:05;;;;;;;15.40;9.90;;;;;;;-6.70;100.00;98458.06;109642;1251;59956;-60
2023/11/30 03:25:33;;;;;;;13.30;9.20;;;;;;;-6.72;100.00;98456.41;109638;1251;60081;-60
2023/11/30 03:27:59;;;;;;;16.70;10.40;;;;;;;-6.74;100.00;98456.54;109656;1251;60799;-59
2023/11/30 03:30:26;;;;;;;15.50;10.20;;;;;;;-6.76;100.00;98458.38;109714;1250;59689;-59
2023/11/30 03:32:52;;;;;;;17.40;11.10;;;;;;;-6.77;100.00;98459.17;109691;1250;75273;-59
2023/11/30 03:35:19;;;;;;;14.50;9.80;;;;;;;-6.79;100.00;98459.08;109635;1250;60030;-59
2023/11/30 03:37:45;;;;;;;19.10;10.60;;;;;;;-6.80;100.00;98456.19;109611;1251;59856;-59
2023/11/30 03:40:12;;;;;;;16.60;10.20;;;;;;;-6.79;100.00;98459.09;109560;1250;59798;-59
2023/11/30 03:42:38;;;;;;;15.50;9.40;;;;;;;-6.76;100.00;98461.01;109631;1251;60920;-59
2023/11/30 03:45:05;;;;;;;17.90;10.70;;;;;;;-6.74;100.00;98461.59;109608;1251;75218;-59
2023/11/30 03:47:32;;;;;;;17.50;10.80;;;;;;;-6.72;100.00;98463.51;109637;1250;68100;-59
2023/11/30 03:49:59;;;;;;;16.00;10.10;;;;;;;-6.71;100.00;98466.85;109582;1251;60298;-59
2023/11/30 03:52:25;;;;;;;15.40;10.30;;;;;;;-6.70;100.00;98467.38;109602;1250;59742;-59
2023/11/30 03:54:52;;;;;;;18.40;10.50;;;;;;;-6.71;100.00;98471.23;109625;1251;59678;-60
2023/11/30 03:57:19;;;;;;;14.80;10.40;;;;;;;-6.71;100.00;98471.52;109612;1251;59782;-60
2023/11/30 03:59:45;;;;;;;18.70;11.00;;;;;;;-6.73;100.00;98474.42;109649;1251;68982;-59
2023/11/30 04:02:12;;;;;;;17.10;10.60;;;;;;;-6.74;100.00;98473.28;109601;1250;59757;-59
2023/11/30 04:04:38;;;;;;;15.30;10.30;;;;;;;-6.76;100.00;98472.88;109661;1251;61831;-60
2023/11/30 04:07:05;;;;;;;15.00;8.90;;;;;;;-6.75;100.00;98469.34;109623;1250;59756;-59
2023/11/30 04:09:32;;;;;;;16.80;10.10;;;;;;;-6.64;100.00;98474.25;109617;1251;75295;-59
2023/11/30 04:11:59;;;;;;;14.70;9.30;;;;;;;-6.53;100.00;98474.99;109584;1250;66657;-59
2023/11/30 04:14:26;;;;;;;14.90;8.70;;;;;;;-6.46;100.00;98473.36;109616;1250;71181;-59
2023/11/30 04:16:52;;;;;;;12.40;9.10;;;;;;;-6.42;100.00;98469.52;109582;1251;59855;-60
2023/11/30 04:19:19;;;;;;;14.40;9.40;;;;;;;-6.39;100.00;98472.44;109617;1251;60106;-59
2023/11/30 04:21:47;;;;;;;16.20;9.10;;;;;;;-6.38;100.00;98470.27;109658;1250;75838;-60
2023/11/30 04:24:14;;;;;;;14.90;9.40;;;;;;;-6.44;100.00;98470.83;109625;1250;59956;-59
2023/11/30 04:26:41;;;;;;;14.70;9.20;;;;;;;-6.59;100.00;98476.00;109500;1251;72698;-59
2023/11/30 04:29:07;;;;;;;14.90;9.90;;;;;;;-6.65;100.00;98473.45;109599;1250;59782;-60
2023/11/30 04:31:34;;;;;;;14.30;9.20;;;;;;;-6.66;100.00;98472.12;109635;1250;59857;-60
2023/11/30 04:34:00;;;;;;;13.90;9.40;;;;;;;-6.62;100.00;98473.13;109613;1251;60168;-60
2023/11/30 04:36:27;;;;;;;13.90;9.60;;;;;;;-6.44;100.00;98473.23;109526;1251;65741;-60
2023/11/30 04:38:53;;;;;;;14.80;8.90;;;;;;;-6.53;100.00;98472.90;109628;1250;59804;-59
2023/11/30 04:41:22;;;;;;;11.70;8.30;;;;;;;-6.53;100.00;98473.95;109567;1250;59880;-59
2023/11/30 04:43:48;;;;;;;11.50;8.40;;;;;;;-6.51;100.00;98472.98;109647;1251;59721;-59
2023/11/30 04:46:15;;;;;;;12.10;8.70;;;;;;;-6.49;100.00;98472.35;109609;1250;60005;-59
2023/11/30 04:48:41;;;;;;;11.80;8.40;;;;;;;-6.48;100.00;98472.77;109588;1250;60081;-59
2023/11/30 04:51:08;;;;;;;11.60;7.40;;;;;;;-6.47;100.00;98465.81;109582;1251;71184;-59
2023/11/30 04:53:35;;;;;;;12.50;7.90;;;;;;;-6.47;100.00;98464.81;109579;1250;61782;-60
2023/11/30 04:56:02;;;;;;;11.30;8.20;;;;;;;-6.48;100.00;98467.63;109529;1251;60080;-59
2023/11/30 04:58:29;;;;;;;15.00;9.00;;;;;;;-6.49;100.00;98469.42;109673;1250;76257;-59
2023/11/30 05:00:56;;;;;;;13.10;8.10;;;;;;;-6.49;100.00;98471.97;109588;1250;67758;-59
2023/11/30 05:03:22;;;;;;;13.20;9.10;;;;;;;-6.48;100.00;98470.36;109579;1251;59830;-59
2023/11/30 05:05:49;;;;;;;11.50;8.00;;;;;;;-6.46;100.00;98473.18;109588;1251;60223;-60
2023/11/30 05:08:16;;;;;;;15.40;8.80;;;;;;;-6.46;100.00;98473.01;109663;1250;59852;-60
2023/11/30 05:10:42;;;;;;;17.20;11.80;;;;;;;-6.48;100.00;98474.48;109581;1250;75159;-60
2023/11/30 05:13:09;;;;;;;16.10;10.50;;;;;;;-6.55;100.00;98472.88;109595;1251;59759;-61
2023/11/30 05:15:38;;;;;;;16.10;9.00;;;;;;;-6.63;100.00;98471.96;109529;1251;72708;-61
2023/11/30 05:18:04;;;;;;;13.90;8.70;;;;;;;-6.68;100.00;98468.27;109544;1251;59886;-60
2023/11/30 05:20:31;;;;;;;12.50;8.00;;;;;;;-6.70;100.00;98472.02;109573;1251;59813;-60
2023/11/30 05:22:58;;;;;;;14.40;9.80;;;;;;;-6.71;100.00;98476.73;109579;1250;74215;-61
2023/11/30 05:25:25;;;;;;;13.70;9.20;;;;;;;-6.71;100.00;98478.63;109562;1251;66755;-60
2023/11/30 05:27:51;;;;;;;13.10;8.30;;;;;;;-6.70;100.00;98478.21;109581;1250;72351;-62
2023/11/30 05:30:18;;;;;;;11.40;7.80;;;;;;;-6.66;100.00;98480.23;109594;1251;59761;-60
2023/11/30 05:32:44;;;;;;;12.50;7.90;;;;;;;-6.61;100.00;98477.02;109585;1251;60107;-61
2023/11/30 05:35:11;;;;;;;10.70;7.30;;;;;;;-6.56;100.00;98472.92;109549;1251;60058;-62
2023/11/30 05:37:37;;;;;;;9.90;7.00;;;;;;;-6.49;100.00;98470.58;109583;1251;59987;-59
2023/11/30 05:40:05;;;;;;;10.80;6.90;;;;;;;-6.42;100.00;98468.60;109566;1250;60030;-59
2023/11/30 05:42:32;;;;;;;10.80;6.50;;;;;;;-6.34;100.00;98467.46;109597;1251;59892;-61
2023/11/30 05:44:59;;;;;;;7.70;5.70;;;;;;;-6.26;100.00;98466.27;109589;1250;59840;-61
2023/11/30 05:47:25;;;;;;;8.70;6.10;;;;;;;-6.17;100.00;98450.61;109619;1251;75117;-59
2023/11/30 05:49:54;;;;;;;9.80;6.50;;;;;;;-6.09;100.00;98449.06;109671;1251;67928;-59
2023/11/30 05:52:20;;;;;;;8.60;6.10;;;;;;;-6.01;100.00;98450.12;109563;1251;71429;-59
2023/11/30 05:54:47;;;;;;;8.20;5.80;;;;;;;-5.92;100.00;98450.45;109599;1251;59812;-59
2023/11/30 05:57:14;;;;;;;8.30;6.10;;;;;;;-5.84;100.00;98446.45;109582;1250;59824;-61
2023/11/30 05:59:40;;;;;;;8.30;5.90;;;;;;;-5.77;100.00;98445.84;109612;1250;74122;-61
2023/11/30 06:02:09;;;;;;;9.40;5.90;;;;;;;-5.69;100.00;98451.59;109614;1251;60128;-60
2023/11/30 06:04:36;;;;;;;9.60;5.60;;;;;;;-5.60;100.00;98451.36;109628;1251;72906;-60
2023/11/30 06:07:03;;;;;;;9.30;6.90;;;;;;;-5.50;100.00;98447.96;109597;1251;60050;-59
2023/11/30 06:09:30;;;;;;;10.30;6.80;;;;;;;-5.39;100.00;98448.27;109565;1251;60331;-61
2023/11/30 06:11:57;;;;;;;11.20;6.50;;;;;;;-5.26;100.00;98448.45;109606;1251;60230;-60
2023/11/30 06:14:23;;;;;;;8.90;6.30;;;;;;;-5.12;100.00;98443.10;109651;1251;67865;-60
2023/11/30 06:16:50;;;;;;;7.90;5.20;;;;;;;-4.98;100.00;98452.94;109588;1250;61084;-60
2023/11/30 06:19:16;;;;;;;7.40;5.80;;;;;;;-4.85;100.00;98453.79;109580;1251;59720;-59
2023/11/30 06:21:43;;;;;;;10.00;5.80;;;;;;;-4.70;100.00;98457.66;109608;1251;59730;-59
2023/11/30 06:24:10;;;;;;;8.10;5.80;;;;;;;-4.55;100.00;98462.84;109572;1251;74401;-61
2023/11/30 06:26:36;;;;;;;8.70;5.90;;;;;;;-4.37;100.00;98465.78;109611;1251;59823;-59
2023/11/30 06:29:03;;;;;;;7.80;5.70;;;;;;;-4.18;100.00;98464.70;109610;1251;60189;-60
2023/11/30 06:31:29;;;;;;;7.40;5.70;;;;;;;-3.99;100.00;98465.66;109558;1250;59705;-60
2023/11/30 06:33:56;;;;;;;8.60;5.80;;;;;;;-3.81;100.00;98463.48;109607;1250;60126;-61
2023/11/30 06:36:24;;;;;;;10.10;6.90;;;;;;;-3.61;100.00;98464.20;109662;1251;59796;-60
2023/11/30 06:38:50;;;;;;;9.00;6.90;;;;;;;-3.44;100.00;98467.52;109650;1250;66400;-61
2023/11/30 06:41:16;;;;;;;9.40;6.20;;;;;;;-3.41;100.00;98468.48;109592;1251;59867;-61
2023/11/30 06:43:43;;;;;;;8.40;5.60;;;;;;;-3.44;100.00;98473.09;109603;1251;59828;-62
2023/11/30 06:46:19;;;;;;;8.20;5.50;;;;;;;-3.47;100.00;98473.98;109655;1250;59992;-61
2023/11/30 06:48:46;;;;;;;8.50;5.50;;;;;;;-3.51;100.00;98478.55;109688;1250;75282;-61
2023/11/30 06:51:13;;;;;;;8.70;5.90;;;;;;;-3.57;100.00;98476.59;109636;1250;66405;-60
2023/11/30 06:53:40;;;;;;;6.50;5.30;;;;;;;-3.62;100.00;98479.18;109623;1251;72319;-61
2023/11/30 06:56:11;;;;;;;7.80;5.50;;;;;;;-3.61;100.00;98477.39;109638;1254;60969;-61
2023/11/30 06:58:38;;;;;;;7.90;5.30;;;;;;;-3.42;100.00;98476.35;109603;1251;59657;-62
2023/11/30 07:01:05;;;;;;;8.40;5.40;;;;;;;-3.14;100.00;98474.05;109660;1251;75845;-61
2023/11/30 07:03:32;;;;;;;8.10;5.50;;;;;;;-2.97;100.00;98474.00;109685;1251;66673;-61
2023/11/30 07:06:08;;;;;;;;;;;;;;;-2.90;100.00;98476.59;109618;1251;72337;-62
2023/11/30 07:08:36;;;;;;;7.30;5.50;;;;;;;-2.91;100.00;98480.14;109606;1251;61008;-61
2023/11/30 07:11:07;;;;;;;7.50;5.70;;;;;;;-2.94;100.00;98482.10;109640;1250;60007;-60
2023/11/30 07:13:33;;;;;;;5.80;5.10;;;;;;;-2.96;100.00;98483.80;109609;1250;75620;-60
2023/11/30 07:16:00;;;;;;;7.10;5.40;;;;;;;-2.98;100.00;98484.66;109578;1251;67696;-61
2023/11/30 07:18:27;;;;;;;6.40;5.50;;;;;;;-2.97;100.00;98485.29;109522;1251;72532;-60
2023/11/30 07:20:53;;;;;;;6.60;5.20;;;;;;;-2.95;100.00;98491.21;109514;1251;59988;-60
2023/11/30 07:23:20;;;;;;;6.70;4.90;;;;;;;-2.92;100.00;98488.52;109541;1251;59823;-60
2023/11/30 07:25:47;;;;;;;7.40;5.60;;;;;;;-2.89;100.00;98491.83;109536;1251;75438;-61
2023/11/30 07:28:13;;;;;;;7.80;5.30;;;;;;;-2.87;100.00;98491.34;109489;1251;59927;-60
2023/11/30 07:30:42;;;;;;;9.70;6.30;;;;;;;-2.86;100.00;98492.66;109491;1251;71150;-60
2023/11/30 07:33:09;;;;;;;7.60;5.80;;;;;;;-2.84;100.00;98496.64;109529;1251;59999;-60
2023/11/30 07:35:37;;;;;;;7.80;5.90;;;;;;;-2.82;100.00;98494.77;109547;1251;60038;-60
2023/11/30 07:38:03;;;;;;;7.90;6.20;;;;;;;-2.80;100.00;98497.42;109598;1250;75378;-60
2023/11/30 07:40:32;;;;;;;8.40;6.30;;;;;;;-2.78;100.00;98492.89;109613;1251;68029;-60
2023/11/30 07:42:59;;;;;;;8.20;6.30;;;;;;;-2.73;100.00;98494.07;109610;1252;71209;-60
2023/11/30 07:45:26;;;;;;;6.40;5.50;;;;;;;-2.66;100.00;98490.45;109585;1251;59762;-61
2023/11/30 07:47:53;;;;;;;8.80;5.70;;;;;;;-2.60;100.00;98493.80;109623;1251;60653;-61
2023/11/30 07:50:20;;;;;;;7.60;5.70;;;;;;;-2.50;100.00;98487.58;109629;1251;59664;-60
2023/11/30 07:52:46;;;;;;;7.30;5.70;;;;;;;-2.23;100.00;98479.59;109674;1250;67159;-61
2023/11/30 07:55:13;;;;;;;7.50;6.10;;;;;;;-1.64;100.00;98474.55;109575;1251;72352;-61
2023/11/30 07:57:40;;;;;;;8.40;6.10;;;;;;;-0.88;100.00;98466.07;109611;1250;59891;-60
2023/11/30 08:00:08;;;;;;;6.60;5.70;;;;;;;-0.09;100.00;98462.80;109694;1251;60396;-60
2023/11/30 08:02:35;;;;;;;7.00;6.20;;;;;;;0.69;100.00;98457.12;109610;1251;75449;-61
2023/11/30 08:05:04;;;;;;;8.90;6.30;;;;;;;1.41;100.00;98454.82;109710;1251;67821;-61
2023/11/30 08:07:32;;;;;;;8.60;6.90;;;;;;;2.08;100.00;98450.19;109594;1251;72722;-61
2023/11/30 08:09:59;;;;;;;7.10;6.10;;;;;;;2.74;100.00;98443.08;109613;1251;59821;-61
2023/11/30 08:12:25;;;;;;;9.00;7.00;;;;;;;3.33;100.00;98443.84;109581;1251;60013;-61
2023/11/30 08:14:52;;;;;;;6.50;5.50;;;;;;;3.58;100.00;98442.20;109686;1251;75365;-61
2023/11/30 08:17:18;;;;;;;7.10;5.60;;;;;;;3.36;99.93;98446.10;109654;1251;59805;-61
2023/11/30 08:19:45;;;;;;;6.90;6.20;;;;;;;2.93;97.17;98447.56;109566;1251;71115;-61
2023/11/30 08:22:11;;;;;;;7.90;5.90;;;;;;;2.48;95.94;98445.23;109615;1250;59842;-61
2023/11/30 08:24:41;;;;;;;6.60;6.00;;;;;;;2.10;95.62;98447.29;109639;1252;59972;-62
2023/11/30 08:27:08;;;;;;;9.10;7.50;;;;;;;1.74;95.68;98449.86;109686;1250;75400;-61
2023/11/30 08:29:36;;;;;;;6.10;5.50;;;;;;;1.45;96.89;98455.21;109639;1250;67760;-61
2023/11/30 08:32:03;;;;;;;6.30;5.70;;;;;;;1.19;98.30;98457.89;109599;1251;72402;-61
2023/11/30 08:34:30;;;;;;;7.30;6.30;;;;;;;0.96;99.56;98456.75;109572;1251;59720;-60
2023/11/30 08:36:56;;;;;;;7.50;6.50;;;;;;;0.71;100.00;98462.36;109687;1251;59794;-60
2023/11/30 08:39:23;;;;;;;7.10;6.20;;;;;;;0.49;100.00;98461.98;109637;1250;75219;-61
2023/11/30 08:41:50;;;;;;;7.30;6.50;;;;;;;0.31;100.00;98461.77;109643;1251;66806;-61
2023/11/30 08:44:17;;;;;;;8.40;7.00;;;;;;;0.20;100.00;98469.95;109616;1251;72582;-60
2023/11/30 08:46:43;;;;;;;8.00;6.00;;;;;;;0.15;100.00;98471.77;109604;1251;59796;-60
2023/11/30 08:49:11;;;;;;;9.30;6.40;;;;;;;0.14;100.00;98472.03;109625;1251;60014;-60
2023/11/30 08:51:38;;;;;;;7.70;6.90;;;;;;;0.11;100.00;98475.88;109642;1250;74452;-61
2023/11/30 08:54:07;;;;;;;7.90;7.10;;;;;;;0.07;100.00;98474.14;109616;1251;68379;-65
2023/11/30 08:56:34;;;;;;;7.40;6.60;;;;;;;0.01;100.00;98472.35;109647;1251;72584;-61
2023/11/30 08:59:01;;;;;;;10.30;6.80;;;;;;;-0.05;100.00;98471.29;109570;1251;59825;-61
2023/11/30 09:01:28;;;;;;;9.10;6.90;;;;;;;-0.12;100.00;98473.83;109641;1251;60255;-61
2023/11/30 09:04:00;;;;;;;8.30;6.40;;;;;;;-0.19;100.00;98474.45;109674;1251;73969;-61
2023/11/30 09:06:27;;;;;;;8.40;7.20;;;;;;;-0.26;100.00;98477.23;109654;1251;68469;-60
2023/11/30 09:08:53;;;;;;;7.50;6.70;;;;;;;-0.32;100.00;98471.33;109561;1252;70700;-60
2023/11/30 09:11:20;;;;;;;8.30;6.60;;;;;;;-0.41;100.00;98467.90;109611;1251;60100;-61
2023/11/30 09:13:47;;;;;;;7.30;6.60;;;;;;;-0.47;100.00;98472.24;109651;1251;60122;-61
2023/11/30 09:16:14;;;;;;;7.40;6.60;;;;;;;-0.52;100.00;98471.26;109570;1252;75325;-61
2023/11/30 09:18:40;;;;;;;7.30;6.50;;;;;;;-0.55;100.00;98475.71;109685;1251;66418;-61
2023/11/30 09:21:07;;;;;;;7.50;6.10;;;;;;;-0.59;100.00;98477.27;109639;1250;59855;-60
2023/11/30 09:23:33;;;;;;;8.00;6.70;;;;;;;-0.61;100.00;98476.20;109606;1250;60086;-60
2023/11/30 09:26:05;;;;;;;8.90;7.30;;;;;;;-0.60;100.00;98474.36;109630;1251;59797;-61
2023/11/30 09:28:32;;;;;;;8.00;6.90;;;;;;;-0.58;100.00;98476.84;109630;1251;74181;-61
2023/11/30 09:31:02;;;;;;;7.50;6.60;;;;;;;-0.57;100.00;98476.05;109615;1251;66422;-61
2023/11/30 09:33:29;;;;;;;8.00;7.20;;;;;;;-0.56;100.00;98476.45;109660;1251;70698;-61
2023/11/30 09:35:56;;;;;;;9.30;6.70;;;;;;;-0.55;100.00;98475.14;109645;1251;60133;-61
2023/11/30 09:38:23;;;;;;;8.40;7.10;;;;;;;-0.52;100.00;98471.30;109682;1255;60357;-61
2023/11/30 09:40:54;;;;;;;9.10;7.40;;;;;;;-0.50;100.00;98467.12;109648;1251;74568;-61
2023/11/30 09:43:20;;;;;;;10.10;8.50;;;;;;;-0.49;100.00;98462.98;109625;1251;66904;-60
2023/11/30 09:45:48;;;;;;;9.10;7.70;;;;;;;-0.45;100.00;98464.60;109638;1251;59910;-60
2023/11/30 09:48:14;;;;;;;8.80;7.50;;;;;;;-0.41;100.00;98458.51;109619;1251;60044;-60
2023/11/30 09:50:41;;;;;;;8.10;6.80;;;;;;;-0.35;100.00;98462.72;109660;1251;60063;-60
2023/11/30 09:53:11;;;;;;;7.90;7.10;;;;;;;-0.29;100.00;98455.09;109672;1250;74184;-61
2023/11/30 09:55:37;;;;;;;10.80;7.50;;;;;;;-0.23;100.00;98453.35;109503;1251;188283;-61
2023/11/30 09:58:04;;;;;;;7.70;6.40;;;;;;;-0.16;100.00;98450.66;109535;1251;72641;-60
2023/11/30 10:00:31;;;;;;;8.40;7.50;;;;;;;-0.10;100.00;98447.51;109639;1251;59978;-60
2023/11/30 10:02:59;;;;;;;9.20;7.00;;;;;;;-0.02;100.00;98454.50;109637;1251;60121;-60
2023/11/30 10:05:28;;;;;;;8.50;6.60;;;;;;;0.05;100.00;98454.48;109672;1250;73417;-61
2023/11/30 10:07:58;;;;;;;8.20;7.10;;;;;;;0.11;100.00;98456.42;109649;1251;65797;-60
2023/11/30 10:10:25;;;;;;;8.30;7.30;;;;;;;0.15;100.00;98456.08;109668;1251;72598;-61
2023/11/30 10:12:53;;;;;;;7.70;6.90;;;;;;;0.16;100.00;98453.66;109599;1251;59843;-60
2023/11/30 10:15:20;;;;;;;7.80;7.00;;;;;;;0.18;100.00;98454.02;109705;1250;59790;-60
2023/11/30 10:17:48;;;;;;;8.40;6.70;;;;;;;0.18;100.00;98449.67;109677;1251;75739;-61
2023/11/30 10:20:15;;;;;;;9.20;8.20;;;;;;;0.19;100.00;98445.92;109630;1251;66808;-61
2023/11/30 10:22:42;;;;;;;7.00;6.10;;;;;;;0.21;100.00;98446.14;109653;1251;72734;-61
2023/11/30 10:25:08;;;;;;;8.70;7.20;;;;;;;0.22;100.00;98442.70;109698;1251;59902;-61
2023/11/30 10:27:35;;;;;;;8.10;7.10;;;;;;;0.24;100.00;98436.92;109665;1251;59652;-61
2023/11/30 10:30:04;;;;;;;8.50;7.00;;;;;;;0.28;100.00;98436.48;109606;1251;75457;-60
2023/11/30 10:32:35;;;;;;;7.30;6.50;;;;;;;0.32;100.00;98427.71;109712;1250;68018;-61
2023/11/30 10:35:05;;;;;;;7.10;6.30;;;;;;;0.36;100.00;98424.88;109511;1251;72504;-61
2023/11/30 10:37:44;;;;;;;7.70;6.50;;;;;;;0.41;100.00;98422.17;109721;1251;59808;-61
2023/11/30 10:40:11;;;;;;;7.80;7.00;;;;;;;0.45;100.00;98417.87;109590;1251;59683;-61
2023/11/30 10:42:41;;;;;;;7.30;6.60;;;;;;;0.49;100.00;98417.88;109643;1251;74176;-61
2023/11/30 10:45:08;;;;;;;9.70;7.20;;;;;;;0.53;100.00;98416.09;109575;1251;67864;-61
2023/11/30 10:47:36;;;;;;;8.00;6.80;;;;;;;0.59;100.00;98414.20;109644;1251;72731;-60
2023/11/30 10:50:05;;;;;;;8.20;7.30;;;;;;;0.63;100.00;98414.70;109512;1251;59792;-61
2023/11/30 10:52:32;;;;;;;8.50;7.50;;;;;;;0.67;100.00;98416.95;109692;1251;59721;-61
2023/11/30 10:55:10;;;;;;;8.40;7.60;;;;;;;0.70;100.00;98410.61;109653;1251;75312;-61
2023/11/30 10:57:41;;;;;;;7.30;6.60;;;;;;;0.72;100.00;98415.98;109395;1251;66466;-61
2023/11/30 11:00:12;;;;;;;8.50;7.60;;;;;;;0.76;100.00;98417.42;109605;1250;72697;-61
2023/11/30 11:02:47;;;;;;;8.20;7.40;;;;;;;0.77;100.00;98413.25;109608;1251;59981;-60
2023/11/30 11:05:15;;;;;;;8.70;7.50;;;;;;;0.80;100.00;98414.75;109653;1250;60231;-61
2023/11/30 11:07:49;;;;;;;8.10;7.30;;;;;;;0.82;100.00;98416.34;109676;1251;75340;-62
2023/11/30 11:10:22;;;;;;;8.10;7.20;;;;;;;0.85;100.00;98414.70;109667;1251;66666;-61
2023/11/30 11:12:49;;;;;;;8.50;7.50;;;;;;;0.90;100.00;98414.59;109659;1250;72943;-61